Time;durP1;ratioP1;P1;durP2;ratioP2;P2;SDS_P1;SDS_P2;PMS_P1;PMS_P2;Temp;Humidity;BMP_temperature;BMP_pressure;BME280_temperature;BME280_humidity;BME280_pressure;Samples;Min_cycle;Max_cycle;Signal;HPM_P1;HPM_P2
2022/08/19 00:01:58;;;;;;;26.73;23.80;;;21.50;89.30;;;;;;5070518;28;20685;-68
2022/08/19 00:04:29;;;;;;;25.17;22.10;;;21.50;89.40;;;;;;5071043;28;20195;-67
2022/08/19 00:07:00;;;;;;;27.95;23.60;;;21.50;89.50;;;;;;5070603;28;20226;-66
2022/08/19 00:09:29;;;;;;;27.73;23.60;;;21.50;89.40;;;;;;5071848;28;20192;-67
2022/08/19 00:11:59;;;;;;;26.98;23.15;;;21.50;89.90;;;;;;5070442;28;20230;-66
2022/08/19 00:14:31;;;;;;;25.73;22.95;;;21.50;89.20;;;;;;5071323;28;20203;-66
2022/08/19 00:17:02;;;;;;;28.25;23.50;;;21.40;89.10;;;;;;5070385;28;20207;-67
2022/08/19 00:19:31;;;;;;;27.33;22.85;;;21.40;89.30;;;;;;5071794;28;20191;-66
2022/08/19 00:22:02;;;;;;;26.20;23.38;;;21.40;89.20;;;;;;5068268;28;20219;-68
2022/08/19 00:24:30;;;;;;;25.17;22.05;;;21.30;89.20;;;;;;5072093;28;20664;-67
2022/08/19 00:27:01;;;;;;;25.83;22.95;;;21.30;89.20;;;;;;5072835;28;20280;-67
2022/08/19 00:29:50;;;;;;;30.02;23.40;;;21.30;89.30;;;;;;5072884;28;20676;-67
2022/08/19 00:32:21;;;;;;;28.40;24.05;;;21.20;89.30;;;;;;5074137;28;20199;-67
2022/08/19 00:34:53;;;;;;;25.75;22.17;;;21.20;89.40;;;;;;5072837;28;20656;-66
2022/08/19 00:37:26;;;;;;;26.98;23.35;;;21.20;89.40;;;;;;5075182;28;20210;-66
2022/08/19 00:39:56;;;;;;;29.20;24.30;;;21.10;89.40;;;;;;5072657;28;20641;-67
2022/08/19 00:42:28;;;;;;;28.08;23.80;;;21.10;89.50;;;;;;5074947;28;20191;-68
2022/08/19 00:44:57;;;;;;;28.90;24.15;;;21.10;89.60;;;;;;5073034;28;20191;-67
2022/08/19 00:47:25;;;;;;;27.70;24.60;;;21.10;89.60;;;;;;5071485;28;20210;-68
2022/08/19 00:49:59;;;;;;;27.30;23.65;;;21.10;89.70;;;;;;5071480;28;20558;-68
2022/08/19 00:52:33;;;;;;;27.42;23.35;;;21.00;89.70;;;;;;5073650;28;20195;-68
2022/08/19 00:55:03;;;;;;;30.02;24.95;;;20.90;89.60;;;;;;5074867;28;20180;-68
2022/08/19 00:57:37;;;;;;;28.60;24.27;;;20.90;89.60;;;;;;5074800;28;20571;-69
2022/08/19 01:00:10;;;;;;;29.98;24.15;;;20.90;89.70;;;;;;5074627;28;20550;-67
2022/08/19 01:02:41;;;;;;;28.77;24.10;;;20.80;89.80;;;;;;5072599;28;20572;-67
2022/08/19 01:05:14;;;;;;;34.88;27.52;;;20.80;89.90;;;;;;5072901;28;20210;-68
2022/08/19 01:07:45;;;;;;;31.20;25.58;;;20.80;90.00;;;;;;5074450;28;20222;-65
2022/08/19 01:10:19;;;;;;;33.30;27.65;;;20.70;90.00;;;;;;5074391;28;20215;-65
2022/08/19 01:12:48;;;;;;;33.63;26.40;;;20.80;90.10;;;;;;5071139;28;20641;-66
2022/08/19 01:15:20;;;;;;;29.92;25.48;;;20.80;90.10;;;;;;5074253;28;20202;-66
2022/08/19 01:17:50;;;;;;;30.48;25.17;;;20.80;90.10;;;;;;5074222;28;20199;-67
2022/08/19 01:20:22;;;;;;;30.30;24.73;;;20.80;90.10;;;;;;5071892;28;20211;-68
2022/08/19 01:22:55;;;;;;;31.27;24.75;;;20.80;90.10;;;;;;5073298;28;20214;-65
2022/08/19 01:25:28;;;;;;;29.90;24.92;;;20.80;90.10;;;;;;5073884;28;20194;-66
2022/08/19 01:27:57;;;;;;;28.95;24.92;;;20.80;90.00;;;;;;5071742;28;20565;-67
2022/08/19 01:30:38;;;;;;;28.73;23.80;;;20.80;90.00;;;;;;5073700;28;20582;-66
2022/08/19 01:33:12;;;;;;;28.88;23.58;;;20.80;90.00;;;;;;5074047;28;20194;-67
2022/08/19 01:35:42;;;;;;;30.92;24.17;;;20.90;90.00;;;;;;5072947;28;20195;-67
2022/08/19 01:38:21;;;;;;;29.10;23.60;;;20.90;90.00;;;;;;5070492;28;20206;-67
2022/08/19 01:40:50;;;;;;;28.77;24.63;;;20.90;90.00;;;;;;5072113;28;20210;-66
2022/08/19 01:43:19;;;;;;;27.85;23.33;;;20.90;90.30;;;;;;5073719;28;20566;-65
2022/08/19 01:45:47;;;;;;;29.88;25.08;;;20.90;90.10;;;;;;5072308;28;20563;-67
2022/08/19 01:48:16;;;;;;;27.27;24.02;;;20.80;90.00;;;;;;5073594;28;20188;-67
2022/08/19 01:50:45;;;;;;;26.40;22.80;;;20.90;90.00;;;;;;5072086;28;20231;-68
2022/08/19 01:53:15;;;;;;;26.90;22.83;;;20.80;90.00;;;;;;5064379;28;20214;-70
2022/08/19 01:55:45;;;;;;;26.58;23.70;;;20.80;90.00;;;;;;5073426;28;20214;-70
2022/08/19 01:58:18;;;;;;;26.10;22.80;;;20.80;90.00;;;;;;5072994;28;20214;-70
2022/08/19 02:00:47;;;;;;;25.60;22.50;;;20.80;90.00;;;;;;5073050;28;20226;-68
2022/08/19 02:03:16;;;;;;;26.48;22.52;;;20.80;89.90;;;;;;5071968;28;20218;-68
2022/08/19 02:05:45;;;;;;;25.73;22.63;;;20.80;89.80;;;;;;5070844;28;20701;-65
2022/08/19 02:08:15;;;;;;;26.88;23.90;;;20.80;89.90;;;;;;5053402;28;20232;-67
2022/08/19 02:10:45;;;;;;;28.50;22.88;;;20.80;89.90;;;;;;5053136;28;20223;-66
2022/08/19 02:13:14;;;;;;;26.52;22.73;;;20.80;89.80;;;;;;5062946;28;20203;-67
2022/08/19 02:15:43;;;;;;;28.30;22.88;;;20.80;89.50;;;;;;5072811;28;20195;-66
2022/08/19 02:18:11;;;;;;;31.23;23.17;;;20.80;89.30;;;;;;5073180;28;20207;-66
2022/08/19 02:20:42;;;;;;;28.48;24.17;;;20.80;89.10;;;;;;5072537;28;20697;-65
2022/08/19 02:23:12;;;;;;;32.33;24.60;;;20.80;89.00;;;;;;5070107;28;20653;-65
2022/08/19 02:25:47;;;;;;;29.55;23.48;;;20.90;89.00;;;;;;5070501;28;20203;-64
2022/08/19 02:28:16;;;;;;;27.88;23.10;;;20.90;89.00;;;;;;5071143;28;20598;-67
2022/08/19 02:30:47;;;;;;;28.35;23.50;;;20.80;89.00;;;;;;5072807;28;20214;-67
2022/08/19 02:33:16;;;;;;;32.13;25.15;;;20.90;88.90;;;;;;5071804;28;20234;-67
2022/08/19 02:35:46;;;;;;;29.55;23.45;;;20.80;88.80;;;;;;5067550;28;20210;-67
2022/08/19 02:38:26;;;;;;;32.10;24.80;;;20.80;88.70;;;;;;5059629;28;20244;-66
2022/08/19 02:40:58;;;;;;;32.72;24.83;;;20.80;88.80;;;;;;5070351;28;20227;-65
2022/08/19 02:43:28;;;;;;;29.77;24.38;;;20.80;88.80;;;;;;5070095;28;20206;-67
2022/08/19 02:46:02;;;;;;;32.00;24.73;;;20.80;88.80;;;;;;5072492;28;20200;-68
2022/08/19 02:48:32;;;;;;;33.10;24.42;;;20.80;88.90;;;;;;5072060;28;20236;-67
2022/08/19 02:51:01;;;;;;;31.30;24.23;;;20.80;89.00;;;;;;5070267;28;20697;-67
2022/08/19 02:53:30;;;;;;;29.05;23.63;;;20.80;89.00;;;;;;5071372;28;20226;-66
2022/08/19 02:56:00;;;;;;;29.05;23.98;;;20.80;89.10;;;;;;5069551;28;20195;-66
2022/08/19 02:58:29;;;;;;;29.15;23.45;;;20.80;89.00;;;;;;5071707;28;20210;-66
2022/08/19 03:00:58;;;;;;;30.10;24.33;;;20.80;89.00;;;;;;5070649;28;20223;-66
2022/08/19 03:03:27;;;;;;;30.88;23.92;;;20.80;88.80;;;;;;5072258;28;20203;-68
2022/08/19 03:06:15;;;;;;;31.25;25.13;;;20.80;88.80;;;;;;5070064;28;20203;-66
2022/08/19 03:08:46;;;;;;;30.73;24.13;;;20.80;88.70;;;;;;5066680;28;20231;-69
2022/08/19 03:11:18;;;;;;;31.13;23.80;;;20.80;88.70;;;;;;5071692;28;20227;-67
2022/08/19 03:13:48;;;;;;;33.10;25.52;;;20.80;88.70;;;;;;5069647;28;20211;-68
2022/08/19 03:16:18;;;;;;;33.08;26.45;;;20.80;88.70;;;;;;5071573;28;20215;-68
2022/08/19 03:18:47;;;;;;;33.90;25.95;;;20.80;88.80;;;;;;5068221;28;20206;-65
2022/08/19 03:21:17;;;;;;;32.17;24.85;;;20.80;88.80;;;;;;5070789;28;20234;-67
2022/08/19 03:23:46;;;;;;;29.65;23.83;;;20.80;88.70;;;;;;5071817;28;20199;-66
2022/08/19 03:26:16;;;;;;;31.77;25.80;;;20.80;88.70;;;;;;5071255;28;20210;-64
2022/08/19 03:28:47;;;;;;;32.30;24.92;;;20.80;88.60;;;;;;5051734;28;20231;-68
2022/08/19 03:31:26;;;;;;;30.20;24.67;;;20.90;88.50;;;;;;5052124;28;20212;-66
2022/08/19 03:34:19;;;;;;;30.30;23.70;;;20.90;88.40;;;;;;5052194;28;20180;-65
2022/08/19 03:36:48;;;;;;;32.92;25.35;;;20.80;88.40;;;;;;5066312;28;20206;-66
2022/08/19 03:39:17;;;;;;;31.23;24.70;;;20.80;88.40;;;;;;5070534;28;20707;-66
2022/08/19 03:41:49;;;;;;;31.52;25.25;;;20.80;89.10;;;;;;5065362;28;20234;-69
2022/08/19 03:44:38;;;;;;;33.60;24.98;;;20.80;88.60;;;;;;5069082;28;20202;-66
2022/08/19 03:47:07;;;;;;;32.45;25.25;;;20.80;88.80;;;;;;5071735;28;20662;-66
2022/08/19 03:49:36;;;;;;;32.10;24.85;;;20.80;88.90;;;;;;5071490;28;20203;-66
2022/08/19 03:52:07;;;;;;;33.13;24.88;;;20.80;89.00;;;;;;5068500;28;20219;-65
2022/08/19 03:54:37;;;;;;;32.65;24.63;;;20.70;89.00;;;;;;5071991;28;20175;-67
2022/08/19 03:57:08;;;;;;;35.55;25.77;;;20.70;89.10;;;;;;5065422;28;20218;-66
2022/08/19 03:59:39;;;;;;;31.13;25.23;;;20.80;88.80;;;;;;5062844;28;20214;-66
2022/08/19 04:02:11;;;;;;;33.00;25.50;;;20.80;88.40;;;;;;5072340;28;20290;-66
2022/08/19 04:04:42;;;;;;;36.58;26.10;;;20.80;88.70;;;;;;5067062;28;20564;-68
2022/08/19 04:07:15;;;;;;;33.13;25.63;;;20.70;88.40;;;;;;5055188;28;20210;-69
2022/08/19 04:09:45;;;;;;;31.05;24.42;;;20.70;88.50;;;;;;5069758;28;20211;-67
2022/08/19 04:12:15;;;;;;;32.28;23.70;;;20.70;88.40;;;;;;5074422;28;20226;-66
2022/08/19 04:14:44;;;;;;;33.22;25.20;;;20.70;88.30;;;;;;5075474;28;20684;-64
2022/08/19 04:17:14;;;;;;;32.85;25.70;;;20.70;88.40;;;;;;5075305;28;20199;-67
2022/08/19 04:19:43;;;;;;;34.13;25.70;;;20.70;88.40;;;;;;5071992;28;20288;-68
2022/08/19 04:22:12;;;;;;;38.00;26.65;;;20.70;88.20;;;;;;5075233;28;20215;-66
2022/08/19 04:24:41;;;;;;;32.88;25.55;;;20.70;88.30;;;;;;5075294;28;20195;-66
2022/08/19 04:27:09;;;;;;;33.40;25.38;;;20.60;88.30;;;;;;5072176;28;20195;-67
2022/08/19 04:29:41;;;;;;;33.22;25.20;;;20.60;88.40;;;;;;5073387;28;20223;-66
2022/08/19 04:32:14;;;;;;;31.15;24.63;;;20.50;88.40;;;;;;5075274;28;20211;-67
2022/08/19 04:34:43;;;;;;;35.30;25.30;;;20.50;88.50;;;;;;5070048;28;20214;-66
2022/08/19 04:37:33;;;;;;;35.80;25.70;;;20.50;88.50;;;;;;5075145;28;20179;-66
2022/08/19 04:42:53;;;;;;;34.53;25.15;;;20.60;88.50;;;;;;5070864;28;20199;-67
2022/08/19 04:45:23;;;;;;;34.85;25.25;;;20.60;88.30;;;;;;5074961;28;20207;-65
2022/08/19 04:47:57;;;;;;;33.50;25.45;;;20.50;88.30;;;;;;5074921;28;20191;-66
2022/08/19 04:50:45;;;;;;;33.88;25.50;;;20.60;88.40;;;;;;5070524;28;20214;-67
2022/08/19 04:53:15;;;;;;;36.28;25.90;;;20.50;88.40;;;;;;5074798;28;20199;-66
2022/08/19 04:55:43;;;;;;;32.03;24.77;;;20.50;88.30;;;;;;5071591;28;20194;-65
2022/08/19 04:58:12;;;;;;;35.75;25.25;;;20.50;88.40;;;;;;5074332;28;20207;-66
2022/08/19 05:00:43;;;;;;;29.83;23.83;;;20.60;88.50;;;;;;5074603;28;20215;-67
2022/08/19 05:03:12;;;;;;;34.75;25.40;;;20.60;88.40;;;;;;5074722;28;20187;-66
2022/08/19 05:05:42;;;;;;;32.78;24.85;;;20.60;88.20;;;;;;5070405;28;20214;-66
2022/08/19 05:08:18;;;;;;;35.35;26.52;;;20.60;88.40;;;;;;5064011;28;20203;-66
2022/08/19 05:10:58;;;;;;;33.85;26.40;;;20.50;88.40;;;;;;5054109;28;20228;-67
2022/08/19 05:13:27;;;;;;;36.22;25.88;;;20.50;88.30;;;;;;5069551;28;20203;-66
2022/08/19 05:15:59;;;;;;;36.80;26.02;;;20.50;88.40;;;;;;5074213;28;20665;-64
2022/08/19 05:24:07;;;;;;;35.78;25.48;;;20.50;88.40;;;;;;5074280;28;20191;-67
2022/08/19 05:26:36;;;;;;;31.55;25.05;;;20.50;88.50;;;;;;5072128;28;20179;-65
2022/08/19 05:29:05;;;;;;;34.47;24.38;;;20.50;88.40;;;;;;5069071;28;20712;-66
2022/08/19 05:31:36;;;;;;;38.22;26.70;;;20.60;88.20;;;;;;5073977;28;20218;-64
2022/08/19 05:34:10;;;;;;;35.22;25.80;;;20.60;88.20;;;;;;5071758;28;20223;-65
2022/08/19 05:36:49;;;;;;;35.40;26.60;;;20.60;88.30;;;;;;5074155;28;20198;-66
2022/08/19 05:39:20;;;;;;;34.65;26.13;;;20.60;88.40;;;;;;5069489;28;20187;-73
2022/08/19 05:41:51;;;;;;;34.47;24.23;;;20.60;88.10;;;;;;5072580;28;20223;-72
2022/08/19 05:44:21;;;;;;;34.85;26.20;;;20.60;88.00;;;;;;5073873;28;20547;-72
2022/08/19 05:46:52;;;;;;;37.35;26.80;;;20.70;88.10;;;;;;5074046;28;20531;-72
2022/08/19 05:49:23;;;;;;;34.83;25.40;;;20.70;88.00;;;;;;5059636;28;20212;-71
2022/08/19 05:51:52;;;;;;;34.53;24.92;;;20.70;87.80;;;;;;5053594;28;20692;-72
2022/08/19 05:54:22;;;;;;;35.55;24.90;;;20.70;88.60;;;;;;5066077;28;20187;-71
2022/08/19 05:56:52;;;;;;;33.22;25.02;;;20.70;88.00;;;;;;5070465;28;20696;-71
2022/08/19 05:59:23;;;;;;;33.92;25.20;;;20.70;88.00;;;;;;5071147;28;20191;-72
2022/08/19 06:01:56;;;;;;;39.30;26.00;;;20.70;88.20;;;;;;5072288;28;20700;-71
2022/08/19 06:04:26;;;;;;;32.22;24.27;;;20.70;88.20;;;;;;5068602;28;20203;-73
2022/08/19 06:06:56;;;;;;;32.85;24.27;;;20.60;88.20;;;;;;5069524;28;20198;-71
2022/08/19 06:09:25;;;;;;;33.75;25.02;;;20.70;88.20;;;;;;5070609;28;20223;-72
2022/08/19 06:11:58;;;;;;;34.75;24.73;;;20.70;88.30;;;;;;5072984;28;20223;-71
2022/08/19 06:14:30;;;;;;;33.50;24.38;;;20.70;88.20;;;;;;5072076;28;20195;-70
2022/08/19 06:17:03;;;;;;;36.72;25.83;;;20.80;88.30;;;;;;5073055;28;20217;-73
2022/08/19 06:19:35;;;;;;;37.75;26.30;;;20.80;88.30;;;;;;5064531;28;20242;-72
2022/08/19 06:22:10;;;;;;;31.90;25.00;;;20.70;88.40;;;;;;5070540;28;20215;-72
2022/08/19 06:24:38;;;;;;;30.65;23.83;;;20.80;88.30;;;;;;5072998;28;20672;-71
2022/08/19 06:27:07;;;;;;;33.47;23.95;;;20.80;88.10;;;;;;5070695;28;20708;-71
2022/08/19 06:29:36;;;;;;;32.42;24.20;;;20.80;88.10;;;;;;5071310;28;20226;-71
2022/08/19 06:32:06;;;;;;;33.55;23.90;;;20.80;88.10;;;;;;5072982;28;20225;-71
2022/08/19 06:34:36;;;;;;;30.67;23.83;;;20.80;87.90;;;;;;5070616;28;20203;-73
2022/08/19 06:37:05;;;;;;;32.60;24.50;;;20.90;87.70;;;;;;5072792;28;20680;-72
2022/08/19 06:39:36;;;;;;;32.10;23.52;;;20.90;87.60;;;;;;5072761;28;20195;-73
2022/08/19 06:42:08;;;;;;;31.05;23.45;;;20.90;87.70;;;;;;5072613;28;20219;-71
2022/08/19 06:44:41;;;;;;;32.33;24.20;;;20.90;87.60;;;;;;5070353;28;20195;-71
2022/08/19 06:47:15;;;;;;;34.70;24.02;;;20.90;87.50;;;;;;5071564;28;20206;-70
2022/08/19 06:49:55;;;;;;;33.60;23.98;;;20.90;87.50;;;;;;5067997;28;20218;-71
2022/08/19 06:52:29;;;;;;;33.58;25.30;;;21.00;87.10;;;;;;5071250;28;20194;-72
2022/08/19 06:54:57;;;;;;;34.85;23.08;;;21.00;87.20;;;;;;5072578;28;20183;-71
2022/08/19 06:57:31;;;;;;;34.08;24.67;;;21.00;87.20;;;;;;5072459;28;20559;-72
2022/08/19 07:00:00;;;;;;;31.25;23.25;;;21.00;87.20;;;;;;5068495;28;20569;-71
2022/08/19 07:02:30;;;;;;;31.10;23.00;;;21.00;87.30;;;;;;5072450;28;20649;-72
2022/08/19 07:05:02;;;;;;;30.50;24.10;;;21.10;87.60;;;;;;5068152;28;20201;-71
2022/08/19 07:07:34;;;;;;;29.30;23.13;;;21.20;87.20;;;;;;5069402;28;20202;-72
2022/08/19 07:10:05;;;;;;;30.77;23.25;;;21.20;87.00;;;;;;5072233;28;20217;-70
2022/08/19 07:12:35;;;;;;;31.13;22.35;;;21.30;86.60;;;;;;5072395;28;20194;-70
2022/08/19 07:15:08;;;;;;;32.42;23.63;;;21.30;87.30;;;;;;5070703;28;20202;-71
2022/08/19 07:17:39;;;;;;;29.02;22.20;;;21.20;86.60;;;;;;5071282;28;20203;-71
2022/08/19 07:20:10;;;;;;;30.23;22.88;;;21.20;86.90;;;;;;5069053;28;20199;-71
2022/08/19 07:22:40;;;;;;;30.80;23.05;;;21.20;87.00;;;;;;5072202;28;20194;-71
2022/08/19 07:25:10;;;;;;;29.92;22.42;;;21.20;87.10;;;;;;5070912;28;20195;-72
2022/08/19 07:27:39;;;;;;;30.60;22.38;;;21.20;87.30;;;;;;5072235;28;20206;-72
2022/08/19 07:30:11;;;;;;;29.90;22.52;;;21.30;87.10;;;;;;5067439;28;20219;-72
2022/08/19 07:32:42;;;;;;;30.17;22.60;;;21.30;87.00;;;;;;5067820;28;20195;-72
2022/08/19 07:35:11;;;;;;;26.63;21.13;;;21.30;86.90;;;;;;5070482;28;20199;-72
2022/08/19 07:37:43;;;;;;;28.38;21.30;;;21.30;87.10;;;;;;5076187;28;20668;-71
2022/08/19 07:40:13;;;;;;;28.55;22.30;;;21.30;87.20;;;;;;5076205;28;20591;-71
2022/08/19 07:42:43;;;;;;;26.92;21.23;;;21.30;87.20;;;;;;5076168;28;20202;-72
2022/08/19 07:45:12;;;;;;;26.60;21.27;;;21.30;87.20;;;;;;5072805;28;20222;-72
2022/08/19 07:47:42;;;;;;;33.22;22.92;;;21.30;87.00;;;;;;5074209;28;20195;-71
2022/08/19 07:50:20;;;;;;;27.45;21.42;;;21.30;86.70;;;;;;5074826;28;20584;-71
2022/08/19 07:52:49;;;;;;;30.45;22.20;;;21.30;86.90;;;;;;5073919;28;20218;-71
2022/08/19 07:55:21;;;;;;;27.60;21.73;;;21.30;87.00;;;;;;5063511;28;21620;-72
2022/08/19 07:58:10;;;;;;;28.65;21.42;;;21.20;87.20;;;;;;5054498;28;20192;-71
2022/08/19 08:00:40;;;;;;;29.80;22.58;;;21.20;87.30;;;;;;5060444;28;20223;-71
2022/08/19 08:03:10;;;;;;;25.67;19.45;;;21.20;87.30;;;;;;5073874;28;20195;-72
2022/08/19 08:11:25;;;;;;;27.75;21.17;;;21.20;87.10;;;;;;5070502;28;20243;-72
2022/08/19 08:13:57;;;;;;;27.15;21.30;;;21.30;87.00;;;;;;5073847;28;20196;-72
2022/08/19 08:16:34;;;;;;;25.95;20.70;;;21.20;87.10;;;;;;5065443;28;20594;-72
2022/08/19 08:19:08;;;;;;;28.38;20.27;;;21.20;87.20;;;;;;5072542;28;20665;-72
2022/08/19 08:21:54;;;;;;;28.00;21.60;;;21.20;87.10;;;;;;5075380;28;20223;-72
2022/08/19 08:24:23;;;;;;;28.13;21.52;;;21.30;86.90;;;;;;5072385;28;20211;-72
2022/08/19 08:26:57;;;;;;;23.17;19.90;;;21.30;86.70;;;;;;5075377;28;20560;-73
2022/08/19 08:29:27;;;;;;;25.30;20.40;;;21.30;86.50;;;;;;5073232;28;20244;-73
2022/08/19 08:32:03;;;;;;;25.30;20.88;;;21.40;86.60;;;;;;5070810;28;20581;-72
2022/08/19 08:34:43;;;;;;;27.98;21.40;;;21.40;86.30;;;;;;5070643;28;20727;-72
2022/08/19 08:37:17;;;;;;;25.00;20.23;;;21.40;86.30;;;;;;5073261;28;20202;-72
2022/08/19 08:39:46;;;;;;;29.10;20.80;;;21.40;86.30;;;;;;5073131;28;20191;-72
2022/08/19 08:42:23;;;;;;;26.08;19.88;;;21.50;86.20;;;;;;5074998;28;20222;-72
2022/08/19 08:44:59;;;;;;;26.50;20.25;;;21.50;86.20;;;;;;5074317;28;20187;-71
2022/08/19 08:47:32;;;;;;;25.75;19.58;;;21.60;86.70;;;;;;5072393;28;20202;-73
2022/08/19 08:50:07;;;;;;;26.65;20.75;;;21.70;86.50;;;;;;5073840;28;20204;-71
2022/08/19 08:52:38;;;;;;;25.00;19.90;;;21.90;85.60;;;;;;5071092;28;20213;-72
2022/08/19 08:55:20;;;;;;;24.17;20.15;;;21.90;85.00;;;;;;5061413;28;20205;-70
2022/08/19 08:57:54;;;;;;;23.00;18.60;;;21.90;85.30;;;;;;5072697;28;20190;-72
2022/08/19 09:00:27;;;;;;;22.08;18.25;;;21.90;85.60;;;;;;5072757;28;20214;-70
2022/08/19 09:02:58;;;;;;;26.88;19.73;;;21.90;85.90;;;;;;5068256;28;20203;-71
2022/08/19 09:05:38;;;;;;;27.00;19.80;;;21.90;85.40;;;;;;5065146;28;20693;-71
2022/08/19 09:08:28;;;;;;;23.45;18.75;;;22.00;85.00;;;;;;5069260;28;20560;-71
2022/08/19 09:10:58;;;;;;;24.40;19.20;;;22.00;85.10;;;;;;5074392;28;20215;-72
2022/08/19 09:13:32;;;;;;;22.88;18.85;;;21.90;85.10;;;;;;5072230;28;20666;-71
2022/08/19 09:16:08;;;;;;;26.10;21.52;;;21.90;85.20;;;;;;5071907;28;20210;-70
2022/08/19 09:18:44;;;;;;;24.15;20.00;;;21.90;85.30;;;;;;5073353;28;20195;-74
2022/08/19 09:21:14;;;;;;;24.88;19.63;;;21.80;85.50;;;;;;5069512;28;20597;-71
2022/08/19 09:23:45;;;;;;;25.75;19.10;;;21.80;85.60;;;;;;5074397;28;20194;-72
2022/08/19 09:26:22;;;;;;;22.55;18.55;;;21.80;85.70;;;;;;5071643;28;20669;-70
2022/08/19 09:29:11;;;;;;;24.23;18.73;;;21.90;85.90;;;;;;5072924;28;20183;-71
2022/08/19 09:31:40;;;;;;;26.17;18.98;;;21.90;85.60;;;;;;5070323;28;20239;-70
2022/08/19 09:34:09;;;;;;;23.73;18.92;;;21.90;85.30;;;;;;5074054;28;20277;-71
2022/08/19 09:36:52;;;;;;;24.67;18.95;;;21.90;85.70;;;;;;5074013;28;20198;-70
2022/08/19 09:39:22;;;;;;;23.45;17.92;;;21.90;85.70;;;;;;5074123;28;20191;-71
2022/08/19 09:41:52;;;;;;;24.48;18.70;;;21.80;85.50;;;;;;5060709;28;20216;-71
2022/08/19 09:44:21;;;;;;;22.75;18.38;;;21.90;85.50;;;;;;5063053;28;20199;-70
2022/08/19 09:46:51;;;;;;;22.35;18.77;;;21.90;85.70;;;;;;5070591;28;20199;-72
2022/08/19 09:49:22;;;;;;;21.42;18.05;;;21.90;85.50;;;;;;5073733;28;20202;-72
2022/08/19 09:51:55;;;;;;;21.73;18.05;;;22.00;85.40;;;;;;5073737;28;20580;-71
2022/08/19 09:54:24;;;;;;;23.35;18.23;;;22.00;85.60;;;;;;5072406;28;20195;-69
2022/08/19 09:56:54;;;;;;;20.35;17.63;;;22.00;85.60;;;;;;5072579;28;20214;-71
2022/08/19 09:59:22;;;;;;;23.25;18.70;;;22.10;85.90;;;;;;5071641;28;20195;-71
2022/08/19 10:01:51;;;;;;;22.80;18.33;;;22.10;85.80;;;;;;5068013;28;20230;-71
2022/08/19 10:04:21;;;;;;;22.42;18.38;;;22.10;85.70;;;;;;5071966;28;20191;-72
2022/08/19 10:06:57;;;;;;;20.15;17.45;;;22.20;85.50;;;;;;5073530;28;20556;-71
2022/08/19 10:09:25;;;;;;;23.65;17.88;;;22.30;85.50;;;;;;5073387;28;20191;-71
2022/08/19 10:12:04;;;;;;;20.20;16.73;;;22.30;85.00;;;;;;5067685;28;20734;-71
2022/08/19 10:14:34;;;;;;;20.75;17.27;;;22.30;85.10;;;;;;5071090;28;20206;-70
2022/08/19 10:17:04;;;;;;;25.00;18.20;;;22.30;84.90;;;;;;5072426;28;20210;-70
2022/08/19 10:19:47;;;;;;;19.85;16.38;;;22.30;85.00;;;;;;5066278;28;20202;-71
2022/08/19 10:22:25;;;;;;;21.55;17.33;;;22.30;85.10;;;;;;5052762;28;20191;-70
2022/08/19 10:24:54;;;;;;;18.98;16.80;;;22.30;85.00;;;;;;5060004;28;20561;-72
2022/08/19 10:27:23;;;;;;;18.77;15.80;;;22.30;85.30;;;;;;5064375;28;20657;-71
2022/08/19 10:29:54;;;;;;;21.15;16.02;;;22.30;85.50;;;;;;5068050;28;20198;-70
2022/08/19 10:32:27;;;;;;;18.30;16.10;;;22.30;85.30;;;;;;5064580;28;20688;-70
2022/08/19 10:35:02;;;;;;;17.73;15.88;;;22.30;85.00;;;;;;5065658;28;20192;-71
2022/08/19 10:37:35;;;;;;;18.13;15.23;;;22.30;85.00;;;;;;5052869;28;20184;-71
2022/08/19 10:40:19;;;;;;;18.85;16.58;;;22.30;85.30;;;;;;5068084;28;20229;-71
2022/08/19 10:42:48;;;;;;;18.15;15.95;;;22.20;85.30;;;;;;5051220;28;20207;-69
2022/08/19 10:45:17;;;;;;;20.90;17.48;;;22.20;85.30;;;;;;5053103;28;20199;-68
2022/08/19 10:47:46;;;;;;;19.52;16.30;;;22.20;85.20;;;;;;5062509;28;20191;-68
2022/08/19 10:53:08;;;;;;;20.45;18.02;;;22.20;85.40;;;;;;5052700;28;20576;-68
2022/08/19 10:58:25;;;;;;;19.50;16.67;;;22.20;85.60;;;;;;5052682;28;20183;-70
2022/08/19 11:00:56;;;;;;;18.00;16.05;;;22.20;85.90;;;;;;5059383;28;20226;-71
2022/08/19 11:03:27;;;;;;;19.30;17.27;;;22.10;86.00;;;;;;5064138;28;20200;-72
2022/08/19 11:06:00;;;;;;;20.48;16.55;;;22.10;86.30;;;;;;5072547;28;20547;-70
2022/08/19 11:08:31;;;;;;;19.17;16.27;;;22.10;86.20;;;;;;5065371;28;20194;-72
2022/08/19 11:11:02;;;;;;;19.27;15.63;;;22.10;86.20;;;;;;5060823;28;20216;-72
2022/08/19 11:13:34;;;;;;;18.50;16.02;;;22.10;86.20;;;;;;5051979;28;20222;-71
2022/08/19 11:16:08;;;;;;;18.65;16.02;;;22.10;86.30;;;;;;5052296;28;20218;-70
2022/08/19 11:18:40;;;;;;;24.25;20.10;;;22.10;85.90;;;;;;5067599;28;20206;-72
2022/08/19 11:21:11;;;;;;;19.17;15.73;;;22.10;86.10;;;;;;5067507;28;20224;-70
2022/08/19 11:23:41;;;;;;;19.63;15.63;;;22.10;86.20;;;;;;5051928;28;20192;-71
2022/08/19 11:26:11;;;;;;;16.33;14.32;;;22.10;86.20;;;;;;5052232;28;20195;-71
2022/08/19 11:28:39;;;;;;;18.48;14.73;;;22.10;86.10;;;;;;5066386;28;20210;-69
2022/08/19 11:31:12;;;;;;;16.17;13.95;;;22.10;86.20;;;;;;5072175;28;20211;-69
2022/08/19 11:33:41;;;;;;;18.45;15.25;;;22.10;86.40;;;;;;5072140;28;20573;-72
2022/08/19 11:36:16;;;;;;;21.02;16.15;;;22.10;86.90;;;;;;5072262;28;20190;-70
2022/08/19 11:38:48;;;;;;;18.30;15.85;;;22.00;87.70;;;;;;5071863;28;20202;-70
2022/08/19 11:41:18;;;;;;;17.42;15.63;;;22.00;88.10;;;;;;5052933;28;20234;-71
2022/08/19 11:43:48;;;;;;;17.50;15.68;;;21.90;88.20;;;;;;5051960;28;20195;-73
2022/08/19 11:46:18;;;;;;;19.10;15.32;;;21.90;88.40;;;;;;5052053;28;20203;-71
2022/08/19 11:48:47;;;;;;;18.50;16.50;;;21.90;88.60;;;;;;5051998;28;20195;-70
2022/08/19 11:51:19;;;;;;;19.85;16.67;;;21.90;89.90;;;;;;5051934;28;20223;-70
2022/08/19 11:53:50;;;;;;;21.90;17.25;;;21.80;90.40;;;;;;5051710;28;20353;-70
2022/08/19 11:56:19;;;;;;;21.90;18.02;;;21.70;90.50;;;;;;5066466;28;20191;-70
2022/08/19 11:58:49;;;;;;;20.10;16.98;;;21.70;90.70;;;;;;5071422;28;20210;-70
2022/08/19 12:01:20;;;;;;;20.80;17.95;;;21.60;90.80;;;;;;5071811;28;20219;-70
2022/08/19 12:03:51;;;;;;;23.30;19.48;;;21.60;90.90;;;;;;5071914;28;20665;-68
2022/08/19 12:06:23;;;;;;;20.50;16.33;;;21.60;91.10;;;;;;5071814;28;20199;-69
2022/08/19 12:08:54;;;;;;;19.38;16.98;;;21.60;91.20;;;;;;5071113;28;20221;-70
2022/08/19 12:11:24;;;;;;;18.27;16.38;;;21.60;91.00;;;;;;5071616;28;20214;-69
2022/08/19 12:13:54;;;;;;;17.05;15.18;;;21.60;91.10;;;;;;5071250;28;20226;-71
2022/08/19 12:16:26;;;;;;;17.88;14.18;;;21.60;91.10;;;;;;5071587;28;20203;-72
2022/08/19 12:18:56;;;;;;;15.25;13.23;;;21.60;91.00;;;;;;5071745;28;20183;-70
2022/08/19 12:21:27;;;;;;;15.82;14.10;;;21.60;90.50;;;;;;5074599;28;20704;-71
2022/08/19 12:23:59;;;;;;;15.50;12.82;;;21.60;90.60;;;;;;5075477;28;20674;-71
2022/08/19 12:26:31;;;;;;;16.88;13.40;;;21.60;90.30;;;;;;5075337;28;20191;-72
2022/08/19 12:29:00;;;;;;;16.75;14.05;;;21.60;90.40;;;;;;5074931;28;20214;-70
2022/08/19 12:31:29;;;;;;;14.65;13.15;;;21.60;90.60;;;;;;5075164;28;20211;-70
2022/08/19 12:33:58;;;;;;;15.55;13.15;;;21.60;90.60;;;;;;5067852;28;20223;-60
2022/08/19 12:36:27;;;;;;;14.98;13.48;;;21.50;90.60;;;;;;5055228;28;20203;-61
2022/08/19 12:38:59;;;;;;;15.50;13.13;;;21.70;90.30;;;;;;5068361;28;20206;-61
2022/08/19 12:41:28;;;;;;;15.00;13.05;;;21.70;90.30;;;;;;5069903;28;20232;-60
2022/08/19 12:43:58;;;;;;;16.98;13.77;;;21.70;90.10;;;;;;5058850;28;20214;-60
2022/08/19 12:46:26;;;;;;;15.32;13.77;;;21.80;90.20;;;;;;5074957;28;20191;-67
2022/08/19 12:48:55;;;;;;;14.60;13.07;;;21.80;90.30;;;;;;5071771;28;20191;-66
2022/08/19 12:51:25;;;;;;;14.70;13.20;;;21.80;90.40;;;;;;5073783;28;20206;-66
2022/08/19 12:53:53;;;;;;;16.17;14.35;;;21.80;90.30;;;;;;5071720;28;20219;-66
2022/08/19 12:56:24;;;;;;;16.58;14.38;;;21.80;90.50;;;;;;5072710;28;20187;-68
2022/08/19 12:58:53;;;;;;;21.17;17.08;;;21.80;90.50;;;;;;5065369;28;20206;-66
2022/08/19 13:01:21;;;;;;;23.85;18.55;;;21.70;90.30;;;;;;5066251;28;20210;-67
2022/08/19 13:03:52;;;;;;;20.73;17.40;;;21.70;90.20;;;;;;5073695;28;20203;-66
2022/08/19 13:06:22;;;;;;;21.15;17.98;;;21.60;90.30;;;;;;5074613;28;20643;-67
2022/08/19 13:08:51;;;;;;;33.35;23.90;;;21.50;90.80;;;;;;5071146;28;20678;-66
2022/08/19 13:11:26;;;;;;;37.15;26.50;;;21.50;92.00;;;;;;5072570;28;20611;-66